createdAt,value
2018-02-16T00:01:33.431Z,53.60
2018-02-16T00:02:33.340Z,48.90
2018-02-16T00:04:26.612Z,49.50
2018-02-16T00:05:26.518Z,54.90
2018-02-16T00:07:19.771Z,45.60
2018-02-16T00:08:19.699Z,45.30
2018-02-16T00:10:12.971Z,46.50
2018-02-16T00:11:12.878Z,47.50
2018-02-16T00:13:06.132Z,46.40
2018-02-16T00:14:06.063Z,43.30
2018-02-16T00:15:59.442Z,56.40
2018-02-16T00:16:59.340Z,49.60
2018-02-16T00:18:52.593Z,51.80
2018-02-16T00:19:52.518Z,49.00
2018-02-16T00:21:45.792Z,44.70
2018-02-16T00:22:45.698Z,37.40
2018-02-16T00:24:38.969Z,46.60
2018-02-16T00:25:38.878Z,38.00
2018-02-16T00:27:32.129Z,46.50
2018-02-16T00:28:32.058Z,42.90
2018-02-16T00:30:25.426Z,48.50
2018-02-16T00:31:25.336Z,54.00
2018-02-16T00:33:18.586Z,53.60
2018-02-16T00:34:18.514Z,48.70
2018-02-16T00:36:11.895Z,39.60
2018-02-16T00:37:11.700Z,34.20
2018-02-16T00:39:04.950Z,43.30
2018-02-16T00:40:04.878Z,38.50
2018-02-16T00:41:58.146Z,50.20
2018-02-16T00:42:58.056Z,42.10
2018-02-16T00:44:51.427Z,43.30
2018-02-16T00:45:51.334Z,41.00
2018-02-16T00:47:44.580Z,42.60
2018-02-16T00:48:44.510Z,42.90
2018-02-16T00:50:37.892Z,46.80
2018-02-16T00:51:37.688Z,46.10
2018-02-16T00:53:30.941Z,41.50
2018-02-16T00:54:30.868Z,41.10
2018-02-16T00:56:24.248Z,46.10
2018-02-16T00:57:24.044Z,41.80
2018-02-16T00:59:17.406Z,52.90
2018-02-16T01:00:17.333Z,44.90
2018-02-16T01:02:10.604Z,48.20
2018-02-16T01:03:10.508Z,55.00
2018-02-16T01:05:03.779Z,49.00
2018-02-16T01:06:03.686Z,47.50
2018-02-16T01:07:57.048Z,46.50
2018-02-16T01:08:56.862Z,42.80
2018-02-16T01:10:51.136Z,37.30
2018-02-16T01:11:51.041Z,44.00
2018-02-16T01:13:44.295Z,38.50
2018-02-16T01:14:44.224Z,40.50
2018-02-16T01:16:37.494Z,35.90
2018-02-16T01:17:37.401Z,41.80
2018-02-16T01:19:30.644Z,38.60
2018-02-16T01:20:30.566Z,42.70
2018-02-16T01:22:23.836Z,42.60
2018-02-16T01:23:23.744Z,42.70
2018-02-16T01:25:17.005Z,38.80
2018-02-16T01:26:16.911Z,38.50
2018-02-16T01:28:10.162Z,34.90
2018-02-16T01:29:10.087Z,34.00
2018-02-16T01:31:03.473Z,36.90
2018-02-16T01:32:03.333Z,38.10
2018-02-16T01:33:56.584Z,38.50
2018-02-16T01:34:56.513Z,36.20
2018-02-16T01:36:49.778Z,37.00
2018-02-16T01:37:49.686Z,36.70
2018-02-16T01:39:43.054Z,37.60
2018-02-16T01:40:42.864Z,38.00
2018-02-16T01:42:36.127Z,33.80
2018-02-16T01:43:36.033Z,36.40
2018-02-16T01:45:29.426Z,37.30
2018-02-16T01:46:29.338Z,38.00
2018-02-16T01:48:22.581Z,36.00
2018-02-16T01:49:22.509Z,37.30
2018-02-16T01:51:15.888Z,38.20
2018-02-16T01:52:15.684Z,39.10
2018-02-16T01:54:08.934Z,41.40
2018-02-16T01:55:08.861Z,41.80
2018-02-16T01:57:02.129Z,41.30
2018-02-16T01:58:02.039Z,40.10
2018-02-16T01:59:55.399Z,42.40
2018-02-16T02:00:55.206Z,42.00
2018-02-16T02:02:48.464Z,38.90
2018-02-16T02:03:48.372Z,40.60
2018-02-16T02:05:41.641Z,42.30
2018-02-16T02:06:41.549Z,41.60
2018-02-16T02:08:34.799Z,43.40
2018-02-16T02:09:34.725Z,41.70
2018-02-16T02:11:27.994Z,43.20
2018-02-16T02:12:27.900Z,42.10
2018-02-16T02:14:21.151Z,42.00
2018-02-16T02:15:21.077Z,42.00
2018-02-16T02:17:14.349Z,40.90
2018-02-16T02:18:14.254Z,40.70
2018-02-16T02:20:07.499Z,40.90
2018-02-16T02:21:07.424Z,41.50
2018-02-16T02:23:00.689Z,41.00
2018-02-16T02:24:00.599Z,39.70
2018-02-16T02:25:53.869Z,40.00
2018-02-16T02:26:53.778Z,40.30
2018-02-16T02:28:47.026Z,41.10
2018-02-16T02:29:46.955Z,40.40
2018-02-16T02:31:40.226Z,40.30
2018-02-16T02:32:40.133Z,41.60
2018-02-16T02:34:33.498Z,43.10
2018-02-16T02:35:33.334Z,42.00
2018-02-16T02:37:26.714Z,41.90
2018-02-16T02:38:26.508Z,40.60
2018-02-16T02:40:19.871Z,41.50
2018-02-16T02:41:19.673Z,39.60
2018-02-16T02:43:13.053Z,40.90
2018-02-16T02:44:12.849Z,40.50
2018-02-16T02:46:06.121Z,43.90
2018-02-16T02:47:06.028Z,42.10
2018-02-16T02:48:59.404Z,43.30
2018-02-16T02:49:59.330Z,43.70
2018-02-16T02:51:52.602Z,46.30
2018-02-16T02:52:52.506Z,48.80
2018-02-16T02:54:45.747Z,47.90
2018-02-16T02:55:45.672Z,48.60
2018-02-16T02:57:38.940Z,48.20
2018-02-16T02:58:38.848Z,47.20
2018-02-16T03:00:32.090Z,49.20
2018-02-16T03:01:32.016Z,48.90
2018-02-16T03:03:25.281Z,48.50
2018-02-16T03:04:25.190Z,48.90
2018-02-16T03:06:18.568Z,47.40
2018-02-16T03:07:18.354Z,47.70
2018-02-16T03:09:11.601Z,46.00
2018-02-16T03:10:11.528Z,43.90
2018-02-16T03:12:04.796Z,47.30
2018-02-16T03:13:04.707Z,45.30
2018-02-16T03:14:57.942Z,46.30
2018-02-16T03:15:57.863Z,46.50
2018-02-16T03:17:51.249Z,45.60
2018-02-16T03:18:51.043Z,44.00
2018-02-16T03:20:44.283Z,45.00
2018-02-16T03:21:44.208Z,46.50
2018-02-16T03:23:37.476Z,44.90
2018-02-16T03:24:37.383Z,44.40
2018-02-16T03:26:30.766Z,45.50
2018-02-16T03:27:30.552Z,44.90
2018-02-16T03:29:23.800Z,45.80
2018-02-16T03:30:23.723Z,43.60
2018-02-16T03:32:16.991Z,43.40
2018-02-16T03:33:16.897Z,43.10
2018-02-16T03:35:10.146Z,44.50
2018-02-16T03:36:10.073Z,44.00
2018-02-16T03:38:03.435Z,44.40
2018-02-16T03:39:03.340Z,44.30
2018-02-16T03:40:56.587Z,42.30
2018-02-16T03:41:56.514Z,42.50
2018-02-16T03:43:49.788Z,43.70
2018-02-16T03:44:49.690Z,41.60
2018-02-16T03:46:42.963Z,41.60
2018-02-16T03:47:42.866Z,43.10
2018-02-16T03:49:36.123Z,42.90
2018-02-16T03:50:36.049Z,41.70
2018-02-16T03:52:29.430Z,42.50
2018-02-16T03:53:29.336Z,42.60
2018-02-16T03:55:22.589Z,42.70
2018-02-16T03:56:22.511Z,41.60
2018-02-16T03:58:15.778Z,42.40
2018-02-16T03:59:15.686Z,41.80
2018-02-16T04:01:08.931Z,43.10
2018-02-16T04:02:08.860Z,41.60
2018-02-16T04:04:02.243Z,44.30
2018-02-16T04:05:02.036Z,43.20
2018-02-16T04:06:55.430Z,42.10
2018-02-16T04:07:55.337Z,42.00
2018-02-16T04:09:48.706Z,41.90
2018-02-16T04:10:48.513Z,41.00
2018-02-16T04:12:41.893Z,42.20
2018-02-16T04:13:41.691Z,42.50
2018-02-16T04:15:34.940Z,41.50
2018-02-16T04:16:34.866Z,42.20
2018-02-16T04:18:28.249Z,40.90
2018-02-16T04:19:28.042Z,41.50
2018-02-16T04:21:21.416Z,43.50
2018-02-16T04:22:21.340Z,41.50
2018-02-16T04:24:14.597Z,42.40
2018-02-16T04:25:14.506Z,42.20
2018-02-16T04:27:07.773Z,40.60
2018-02-16T04:28:07.680Z,41.20
2018-02-16T04:30:00.918Z,39.70
2018-02-16T04:31:00.846Z,40.80
2018-02-16T04:32:54.117Z,41.00
2018-02-16T04:33:54.022Z,40.50
2018-02-16T04:35:47.269Z,41.10
2018-02-16T04:36:47.198Z,40.50
2018-02-16T04:38:40.469Z,42.10
2018-02-16T04:39:40.373Z,41.40
2018-02-16T04:41:33.624Z,40.10
2018-02-16T04:42:33.548Z,40.60
2018-02-16T04:44:26.819Z,41.30
2018-02-16T04:45:26.747Z,38.80
2018-02-16T04:47:19.991Z,39.20
2018-02-16T04:48:19.898Z,40.30
2018-02-16T04:50:13.262Z,39.50
2018-02-16T04:51:13.067Z,39.80
2018-02-16T04:53:06.340Z,41.00
2018-02-16T04:54:06.243Z,39.80
2018-02-16T04:55:59.496Z,39.50
2018-02-16T04:56:59.417Z,38.70
2018-02-16T04:58:52.686Z,40.90
2018-02-16T04:59:52.593Z,39.70
2018-02-16T05:01:45.841Z,39.80
2018-02-16T05:02:45.768Z,40.60
2018-02-16T05:04:39.149Z,39.50
2018-02-16T05:05:38.944Z,40.40
2018-02-16T05:07:32.213Z,39.40
2018-02-16T05:08:32.118Z,40.20
2018-02-16T05:10:25.413Z,38.30
2018-02-16T05:11:25.338Z,38.80
2018-02-16T05:13:18.607Z,39.50
2018-02-16T05:14:18.511Z,39.40
2018-02-16T05:16:11.876Z,38.70
2018-02-16T05:17:11.689Z,38.90
2018-02-16T05:19:04.958Z,38.70
2018-02-16T05:20:04.863Z,38.40
2018-02-16T05:21:58.121Z,36.90
2018-02-16T05:22:58.031Z,38.10
2018-02-16T05:24:51.428Z,38.30
2018-02-16T05:25:51.336Z,39.20
2018-02-16T05:27:44.606Z,38.60
2018-02-16T05:28:44.513Z,38.20
2018-02-16T05:30:37.876Z,38.40
2018-02-16T05:31:37.682Z,38.00
2018-02-16T05:33:30.951Z,36.90
2018-02-16T05:34:30.855Z,38.40
2018-02-16T05:36:24.106Z,37.20
2018-02-16T05:37:24.030Z,36.80
2018-02-16T05:39:17.427Z,36.10
2018-02-16T05:40:17.335Z,37.40
2018-02-16T05:42:10.586Z,36.90
2018-02-16T05:43:10.512Z,37.80
2018-02-16T05:45:03.781Z,36.70
2018-02-16T05:46:03.686Z,35.60
2018-02-16T05:47:56.958Z,35.40
2018-02-16T05:48:56.865Z,36.20
2018-02-16T05:50:50.111Z,34.30
2018-02-16T05:51:50.036Z,34.80
2018-02-16T05:53:43.430Z,34.30
2018-02-16T05:54:43.336Z,34.00
2018-02-16T05:56:36.586Z,34.60
2018-02-16T05:57:36.511Z,33.90
2018-02-16T05:59:29.780Z,32.80
2018-02-16T06:00:29.686Z,32.10
2018-02-16T06:02:23.048Z,33.00
2018-02-16T06:03:22.859Z,33.50
2018-02-16T06:05:16.133Z,34.70
2018-02-16T06:06:16.039Z,34.90
2018-02-16T06:08:09.427Z,35.00
2018-02-16T06:09:09.335Z,35.10
2018-02-16T06:11:02.696Z,33.10
2018-02-16T06:12:02.507Z,36.30
2018-02-16T06:13:55.890Z,34.00
2018-02-16T06:14:55.681Z,33.50
2018-02-16T06:16:48.931Z,35.10
2018-02-16T06:17:48.856Z,35.00
2018-02-16T06:19:42.129Z,35.00
2018-02-16T06:20:42.032Z,35.70
2018-02-16T06:22:35.410Z,36.30
2018-02-16T06:23:35.335Z,35.50
2018-02-16T06:25:28.719Z,35.70
2018-02-16T06:26:28.504Z,36.50
2018-02-16T06:28:21.777Z,34.20
2018-02-16T06:29:21.684Z,34.30
2018-02-16T06:31:14.932Z,33.70
2018-02-16T06:32:14.857Z,34.40
2018-02-16T06:34:08.127Z,34.50
2018-02-16T06:35:08.034Z,34.80
2018-02-16T06:37:01.410Z,36.70
2018-02-16T06:38:01.336Z,37.10
2018-02-16T06:39:54.604Z,34.50
2018-02-16T06:40:54.511Z,34.70
2018-02-16T06:42:47.759Z,34.60
2018-02-16T06:43:47.687Z,34.90
2018-02-16T06:45:40.953Z,33.50
2018-02-16T06:46:40.861Z,32.60
2018-02-16T06:48:34.128Z,34.60
2018-02-16T06:49:34.035Z,34.10
2018-02-16T06:51:27.406Z,34.80
2018-02-16T06:52:27.332Z,35.00
2018-02-16T06:54:20.605Z,34.90
2018-02-16T06:55:20.510Z,34.90
2018-02-16T06:57:13.873Z,33.40
2018-02-16T06:58:13.686Z,34.20
2018-02-16T07:00:07.066Z,32.20
2018-02-16T07:01:06.853Z,33.00
2018-02-16T07:03:00.212Z,32.30
2018-02-16T07:04:00.027Z,33.10
2018-02-16T07:05:53.426Z,33.30
2018-02-16T07:06:53.334Z,33.70
2018-02-16T07:08:46.604Z,31.80
2018-02-16T07:09:46.513Z,33.10
2018-02-16T07:11:39.762Z,31.60
2018-02-16T07:12:39.688Z,31.60
2018-02-16T07:14:32.958Z,32.90
2018-02-16T07:15:32.862Z,33.80
2018-02-16T07:17:26.103Z,32.70
2018-02-16T07:18:26.028Z,32.30
2018-02-16T07:20:19.429Z,31.90
2018-02-16T07:21:19.336Z,31.30
2018-02-16T07:23:12.592Z,31.80
2018-02-16T07:24:12.515Z,32.00
2018-02-16T07:26:05.767Z,31.30
2018-02-16T07:27:05.678Z,32.00
2018-02-16T07:28:58.936Z,31.20
2018-02-16T07:29:58.835Z,30.20
2018-02-16T07:31:53.085Z,30.10
2018-02-16T07:32:53.007Z,31.20
2018-02-16T07:34:46.269Z,31.10
2018-02-16T07:35:46.174Z,31.60
2018-02-16T07:37:39.414Z,32.30
2018-02-16T07:38:39.340Z,31.20
2018-02-16T07:40:32.596Z,30.10
2018-02-16T07:41:32.503Z,29.90
2018-02-16T07:43:25.749Z,30.50
2018-02-16T07:44:25.683Z,29.50
2018-02-16T07:46:18.936Z,29.80
2018-02-16T07:47:18.850Z,29.60
2018-02-16T07:49:12.115Z,30.30
2018-02-16T07:50:12.007Z,30.80
2018-02-16T07:52:05.256Z,29.70
2018-02-16T07:53:05.185Z,29.90
2018-02-16T07:54:58.473Z,28.90
2018-02-16T07:55:58.346Z,28.40
2018-02-16T07:57:51.585Z,27.90
2018-02-16T07:58:51.509Z,27.70
2018-02-16T08:00:44.785Z,29.90
2018-02-16T08:01:44.687Z,30.00
2018-02-16T08:03:37.926Z,27.80
2018-02-16T08:04:37.851Z,28.10
2018-02-16T08:06:31.113Z,27.60
2018-02-16T08:07:31.026Z,26.20
2018-02-16T08:09:24.276Z,27.20
2018-02-16T08:10:24.183Z,27.60
2018-02-16T08:12:17.544Z,27.90
2018-02-16T08:13:17.344Z,28.00
2018-02-16T08:15:10.617Z,27.20
2018-02-16T08:16:10.526Z,28.70
2018-02-16T08:18:03.890Z,27.50
2018-02-16T08:19:03.691Z,27.40
2018-02-16T08:20:56.952Z,27.50
2018-02-16T08:21:56.857Z,27.20
2018-02-16T08:23:50.122Z,26.30
2018-02-16T08:24:50.022Z,25.90
2018-02-16T08:26:43.262Z,26.10
2018-02-16T08:27:43.187Z,25.40
2018-02-16T08:29:36.446Z,26.20
2018-02-16T08:30:36.355Z,24.70
2018-02-16T08:32:29.594Z,25.60
2018-02-16T08:33:29.523Z,24.00
2018-02-16T08:35:22.782Z,25.00
2018-02-16T08:36:22.682Z,25.00
2018-02-16T08:38:15.923Z,25.00
2018-02-16T08:39:15.852Z,25.10
2018-02-16T08:41:09.112Z,23.10
2018-02-16T08:42:09.016Z,23.00
2018-02-16T08:44:02.256Z,22.20
2018-02-16T08:45:02.188Z,21.90
2018-02-16T08:46:55.446Z,20.70
2018-02-16T08:47:55.351Z,21.60
2018-02-16T08:49:48.621Z,20.40
2018-02-16T08:50:48.534Z,20.10
2018-02-16T08:52:41.777Z,19.10
2018-02-16T08:53:41.704Z,18.50
2018-02-16T08:55:35.086Z,17.10
2018-02-16T08:56:34.883Z,16.20
2018-02-16T08:58:28.146Z,15.80
2018-02-16T08:59:28.056Z,16.00
2018-02-16T09:01:21.431Z,16.00
2018-02-16T09:02:21.342Z,16.10
2018-02-16T09:04:14.605Z,16.30
2018-02-16T09:05:14.512Z,15.90
2018-02-16T09:07:07.781Z,14.80
2018-02-16T09:08:07.689Z,15.10
2018-02-16T09:10:00.955Z,14.40
2018-02-16T09:11:00.865Z,13.80
2018-02-16T09:12:54.113Z,14.70
2018-02-16T09:13:54.046Z,15.00
2018-02-16T09:15:47.433Z,14.20
2018-02-16T09:16:47.346Z,13.40
2018-02-16T09:18:40.592Z,13.30
2018-02-16T09:19:40.522Z,13.40
2018-02-16T09:21:33.787Z,16.00
2018-02-16T09:22:33.699Z,15.70
2018-02-16T09:24:26.968Z,14.30
2018-02-16T09:25:26.878Z,14.00
2018-02-16T09:27:20.145Z,14.70
2018-02-16T09:28:20.058Z,14.10
2018-02-16T09:30:13.436Z,14.20
2018-02-16T09:31:13.347Z,14.90
2018-02-16T09:33:06.713Z,14.00
2018-02-16T09:34:06.524Z,13.90
2018-02-16T09:35:59.911Z,14.10
2018-02-16T09:36:59.703Z,14.90
2018-02-16T09:38:52.952Z,14.20
2018-02-16T09:39:52.885Z,14.30
2018-02-16T09:41:46.152Z,13.00
2018-02-16T09:42:46.064Z,14.10
2018-02-16T09:44:39.443Z,14.40
2018-02-16T09:45:39.350Z,14.20
2018-02-16T09:47:32.659Z,14.10
2018-02-16T09:48:32.521Z,14.30
2018-02-16T09:50:25.793Z,14.80
2018-02-16T09:51:25.703Z,15.20
2018-02-16T09:53:18.960Z,14.30
2018-02-16T09:54:18.889Z,13.70
2018-02-16T09:56:12.167Z,16.20
2018-02-16T09:57:12.072Z,15.00
2018-02-16T09:59:05.490Z,13.40
2018-02-16T10:00:05.345Z,13.60
2018-02-16T10:01:58.639Z,13.90
2018-02-16T10:02:58.540Z,13.10
2018-02-16T10:04:51.980Z,13.60
2018-02-16T10:05:51.711Z,14.00
2018-02-16T10:07:45.081Z,14.00
2018-02-16T10:08:44.915Z,14.00
2018-02-16T10:10:38.185Z,13.70
2018-02-16T10:11:38.096Z,13.60
2018-02-16T10:13:31.408Z,14.40
2018-02-16T10:14:31.345Z,13.50
2018-02-16T10:16:24.623Z,13.10
2018-02-16T10:17:24.535Z,13.40
2018-02-16T10:19:17.794Z,13.90
2018-02-16T10:20:17.727Z,14.20
2018-02-16T10:22:11.007Z,13.90
2018-02-16T10:23:10.915Z,14.40
2018-02-16T10:25:04.304Z,13.60
2018-02-16T10:26:04.107Z,14.30
2018-02-16T10:27:57.411Z,14.30
2018-02-16T10:28:57.343Z,14.80
2018-02-16T10:30:50.733Z,13.60
2018-02-16T10:31:50.535Z,13.70
2018-02-16T10:33:43.795Z,13.70
2018-02-16T10:34:43.729Z,13.30
2018-02-16T10:36:37.118Z,13.40
2018-02-16T10:37:36.924Z,13.30
2018-02-16T10:39:30.191Z,12.30
2018-02-16T10:40:30.128Z,11.60
2018-02-16T10:42:23.435Z,13.40
2018-02-16T10:43:23.351Z,12.10
2018-02-16T10:45:16.631Z,12.20
2018-02-16T10:46:16.542Z,12.10
2018-02-16T10:48:09.914Z,12.50
2018-02-16T10:49:09.727Z,11.60
2018-02-16T10:51:03.117Z,11.00
2018-02-16T10:52:02.911Z,11.80
2018-02-16T10:53:56.162Z,11.40
2018-02-16T10:54:56.094Z,12.00
2018-02-16T10:56:49.432Z,11.50
2018-02-16T10:57:49.344Z,10.70
2018-02-16T10:59:42.606Z,11.30
2018-02-16T11:00:42.545Z,12.20
2018-02-16T11:02:35.811Z,12.50
2018-02-16T11:03:35.720Z,11.70
2018-02-16T11:05:28.990Z,12.90
2018-02-16T11:06:28.900Z,12.00
2018-02-16T11:08:22.150Z,11.20
2018-02-16T11:09:22.081Z,11.90
2018-02-16T11:11:15.432Z,11.50
2018-02-16T11:12:15.344Z,11.10
2018-02-16T11:14:08.711Z,11.90
2018-02-16T11:15:08.522Z,12.00
2018-02-16T11:17:01.800Z,11.40
2018-02-16T11:18:01.709Z,10.60
2018-02-16T11:19:54.958Z,11.70
2018-02-16T11:20:54.887Z,11.10
2018-02-16T11:22:48.174Z,10.70
2018-02-16T11:23:48.090Z,10.70
2018-02-16T11:25:41.435Z,10.80
2018-02-16T11:26:41.349Z,10.90
2018-02-16T11:28:34.597Z,11.00
2018-02-16T11:29:34.532Z,10.70
2018-02-16T11:31:27.795Z,10.50
2018-02-16T11:32:27.706Z,10.40
2018-02-16T11:34:20.957Z,9.90
2018-02-16T11:35:20.886Z,9.20
2018-02-16T11:37:14.273Z,8.90
2018-02-16T11:38:14.079Z,9.20
2018-02-16T11:40:07.420Z,10.20
2018-02-16T11:41:07.348Z,9.50
2018-02-16T11:43:00.634Z,8.30
2018-02-16T11:44:00.531Z,8.40
2018-02-16T11:45:53.810Z,7.70
2018-02-16T11:46:53.717Z,7.90
2018-02-16T11:48:46.970Z,7.00
2018-02-16T11:49:46.896Z,7.60
2018-02-16T11:51:40.177Z,7.20
2018-02-16T11:52:40.087Z,6.90
2018-02-16T11:54:33.576Z,7.30
2018-02-16T11:55:33.507Z,6.50
2018-02-16T11:57:26.773Z,7.40
2018-02-16T11:58:26.682Z,7.10
2018-02-16T12:00:19.933Z,5.70
2018-02-16T12:01:19.861Z,6.90
2018-02-16T12:03:13.132Z,6.30
2018-02-16T12:04:13.039Z,7.30
2018-02-16T12:06:06.308Z,6.90
2018-02-16T12:07:06.219Z,6.40
2018-02-16T12:08:59.581Z,6.60
2018-02-16T12:09:59.516Z,6.20
2018-02-16T12:11:52.804Z,7.20
2018-02-16T12:12:52.685Z,6.60
2018-02-16T12:14:45.946Z,6.50
2018-02-16T12:15:45.878Z,6.20
2018-02-16T12:17:39.153Z,6.70
2018-02-16T12:18:39.066Z,6.30
2018-02-16T12:20:32.325Z,5.90
2018-02-16T12:21:32.254Z,6.40
2018-02-16T12:23:25.596Z,6.00
2018-02-16T12:24:25.524Z,6.00
2018-02-16T12:26:18.781Z,6.60
2018-02-16T12:27:18.692Z,5.90
2018-02-16T12:29:11.951Z,5.60
2018-02-16T12:30:11.882Z,6.00
2018-02-16T12:32:05.164Z,5.70
2018-02-16T12:33:05.067Z,5.00
2018-02-16T12:34:58.333Z,5.10
2018-02-16T12:35:58.266Z,5.60
2018-02-16T12:37:51.544Z,5.90
2018-02-16T12:38:51.451Z,5.80
2018-02-16T12:40:44.715Z,5.10
2018-02-16T12:41:44.642Z,5.60
2018-02-16T12:43:37.921Z,5.50
2018-02-16T12:44:37.840Z,5.10
2018-02-16T12:46:31.114Z,5.10
2018-02-16T12:47:31.022Z,4.70
2018-02-16T12:49:24.283Z,4.80
2018-02-16T12:50:24.213Z,5.40
2018-02-16T12:52:17.494Z,5.20
2018-02-16T12:53:17.405Z,5.10
2018-02-16T12:55:10.665Z,5.10
2018-02-16T12:56:10.592Z,4.50
2018-02-16T12:58:03.864Z,5.00
2018-02-16T12:59:03.768Z,4.70
2018-02-16T13:00:57.019Z,4.00
2018-02-16T13:01:56.948Z,3.80
2018-02-16T13:03:50.210Z,4.20
2018-02-16T13:04:50.127Z,4.00
2018-02-16T13:06:43.432Z,4.60
2018-02-16T13:07:43.338Z,4.30
2018-02-16T13:09:36.590Z,3.70
2018-02-16T13:10:36.518Z,3.80
2018-02-16T13:12:29.785Z,4.00
2018-02-16T13:13:29.694Z,4.40
2018-02-16T13:15:23.067Z,3.40
2018-02-16T13:16:22.887Z,3.80
2018-02-16T13:18:16.273Z,3.70
2018-02-16T13:19:16.065Z,3.90
2018-02-16T13:21:09.411Z,3.80
2018-02-16T13:22:09.343Z,3.70
2018-02-16T13:24:02.646Z,3.30
2018-02-16T13:25:02.550Z,3.00
2018-02-16T13:26:55.830Z,3.30
2018-02-16T13:27:55.746Z,4.50
2018-02-16T13:29:48.992Z,3.10
2018-02-16T13:30:48.923Z,3.00
2018-02-16T13:32:42.194Z,4.00
2018-02-16T13:33:42.104Z,3.10
2018-02-16T13:35:35.474Z,3.50
2018-02-16T13:36:35.344Z,3.10
2018-02-16T13:38:28.609Z,3.30
2018-02-16T13:39:28.523Z,3.30
2018-02-16T13:41:21.888Z,3.90
2018-02-16T13:42:21.698Z,3.50
2018-02-16T13:44:14.973Z,3.20
2018-02-16T13:45:14.888Z,3.50
2018-02-16T13:47:08.168Z,4.20
2018-02-16T13:48:08.076Z,3.40
2018-02-16T13:50:01.474Z,3.70
2018-02-16T13:51:01.342Z,3.50
2018-02-16T13:52:54.734Z,3.10
2018-02-16T13:53:54.523Z,2.80
2018-02-16T13:55:47.771Z,2.80
2018-02-16T13:56:47.704Z,2.70
2018-02-16T13:58:40.971Z,2.80
2018-02-16T13:59:40.882Z,2.90
2018-02-16T14:01:34.129Z,2.80
2018-02-16T14:02:34.065Z,2.90
2018-02-16T14:04:27.434Z,2.80
2018-02-16T14:05:27.346Z,2.60
2018-02-16T14:07:20.612Z,2.80
2018-02-16T14:08:20.522Z,2.60
2018-02-16T14:10:13.783Z,2.50
2018-02-16T14:11:13.715Z,2.60
2018-02-16T14:13:06.983Z,2.60
2018-02-16T14:14:06.894Z,2.70
2018-02-16T14:16:00.308Z,2.50
2018-02-16T14:17:00.072Z,2.30
2018-02-16T14:18:53.342Z,2.90
2018-02-16T14:19:53.251Z,2.60
2018-02-16T14:21:46.501Z,2.80
2018-02-16T14:22:46.432Z,2.50
2018-02-16T14:24:39.704Z,2.80
2018-02-16T14:25:39.612Z,2.50
2018-02-16T14:27:32.881Z,2.80
2018-02-16T14:28:32.790Z,2.50
2018-02-16T14:30:26.044Z,2.80
2018-02-16T14:31:25.973Z,2.40
2018-02-16T14:33:19.248Z,3.40
2018-02-16T14:34:19.166Z,2.60
2018-02-16T14:36:12.425Z,2.30
2018-02-16T14:37:12.355Z,3.40
2018-02-16T14:39:05.641Z,2.60
2018-02-16T14:40:05.553Z,2.70
2018-02-16T14:41:58.812Z,2.20
2018-02-16T14:42:58.742Z,2.00
2018-02-16T14:44:52.020Z,2.40
2018-02-16T14:45:51.932Z,2.30
2018-02-16T14:47:45.211Z,2.60
2018-02-16T14:48:45.120Z,2.30
2018-02-16T14:50:38.373Z,2.00
2018-02-16T14:51:38.304Z,2.30
2018-02-16T14:53:31.587Z,2.00
2018-02-16T14:54:31.494Z,2.10
2018-02-16T14:56:24.862Z,2.60
2018-02-16T14:57:24.681Z,2.20
2018-02-16T14:59:17.961Z,2.20
2018-02-16T15:00:17.871Z,2.10
2018-02-16T15:02:11.132Z,2.70
2018-02-16T15:03:11.061Z,2.70
2018-02-16T15:05:04.340Z,2.60
2018-02-16T15:06:04.250Z,2.80
2018-02-16T15:07:57.532Z,2.50
2018-02-16T15:08:57.442Z,2.80
2018-02-16T15:10:50.715Z,2.10
2018-02-16T15:11:50.633Z,2.00
2018-02-16T15:13:43.909Z,1.90
2018-02-16T15:14:43.821Z,1.90
2018-02-16T15:16:37.078Z,2.40
2018-02-16T15:17:37.031Z,2.40
2018-02-16T15:19:30.292Z,2.30
2018-02-16T15:20:30.199Z,2.30
2018-02-16T15:22:23.461Z,2.00
2018-02-16T15:23:23.392Z,2.90
2018-02-16T15:25:16.689Z,2.60
2018-02-16T15:26:16.578Z,2.40
2018-02-16T15:28:09.884Z,2.00
2018-02-16T15:29:09.793Z,2.30
2018-02-16T15:31:03.048Z,2.70
2018-02-16T15:32:02.979Z,2.50
2018-02-16T15:33:56.255Z,2.40
2018-02-16T15:34:56.167Z,2.60
2018-02-16T15:36:49.425Z,2.30
2018-02-16T15:37:49.356Z,2.40
2018-02-16T15:39:42.635Z,2.30
2018-02-16T15:40:42.544Z,2.60
2018-02-16T15:42:35.812Z,2.60
2018-02-16T15:43:35.744Z,2.20
2018-02-16T15:45:29.025Z,2.40
2018-02-16T15:46:28.934Z,2.30
2018-02-16T15:48:22.212Z,2.70
2018-02-16T15:49:22.122Z,2.40
2018-02-16T15:51:15.492Z,2.20
2018-02-16T15:52:15.340Z,2.40
2018-02-16T15:54:08.617Z,2.10
2018-02-16T15:55:08.529Z,2.30
2018-02-16T15:57:01.794Z,2.30
2018-02-16T15:58:01.721Z,2.60
2018-02-16T15:59:54.999Z,2.60
2018-02-16T16:00:54.910Z,2.80
2018-02-16T16:02:48.174Z,4.60
2018-02-16T16:03:48.098Z,4.60
2018-02-16T16:05:41.435Z,3.20
2018-02-16T16:06:41.342Z,2.50
2018-02-16T16:08:34.621Z,2.70
2018-02-16T16:09:34.537Z,2.90
2018-02-16T16:11:27.792Z,2.60
2018-02-16T16:12:27.719Z,2.70
2018-02-16T16:14:21.001Z,2.50
2018-02-16T16:15:20.909Z,2.50
2018-02-16T16:17:14.168Z,2.20
2018-02-16T16:18:14.098Z,2.30
2018-02-16T16:20:07.434Z,2.50
2018-02-16T16:21:07.345Z,2.20
2018-02-16T16:23:00.711Z,2.60
2018-02-16T16:24:00.531Z,2.20
2018-02-16T16:25:53.807Z,2.20
2018-02-16T16:26:53.726Z,2.20
2018-02-16T16:28:46.996Z,2.20
2018-02-16T16:29:46.905Z,2.50
2018-02-16T16:31:40.162Z,2.70
2018-02-16T16:32:40.091Z,2.50
2018-02-16T16:34:33.430Z,2.70
2018-02-16T16:35:33.337Z,2.90
2018-02-16T16:37:26.596Z,3.00
2018-02-16T16:38:26.527Z,2.70
2018-02-16T16:40:19.794Z,2.60
2018-02-16T16:41:19.702Z,2.90
2018-02-16T16:43:12.958Z,3.00
2018-02-16T16:44:12.891Z,2.40
2018-02-16T16:46:06.168Z,2.50
2018-02-16T16:47:06.080Z,3.00
2018-02-16T16:48:59.480Z,3.00
2018-02-16T16:49:59.341Z,2.80
2018-02-16T16:51:52.600Z,2.60
2018-02-16T16:52:52.527Z,2.80
2018-02-16T16:54:45.804Z,3.10
2018-02-16T16:55:45.715Z,2.70
2018-02-16T16:57:38.970Z,2.70
2018-02-16T16:58:38.899Z,2.60
2018-02-16T17:00:32.182Z,5.80
2018-02-16T17:01:32.089Z,6.40
2018-02-16T17:03:25.413Z,3.70
2018-02-16T17:04:25.338Z,3.60
2018-02-16T17:06:18.615Z,2.70
2018-02-16T17:07:18.530Z,2.90
2018-02-16T17:09:11.803Z,2.80
2018-02-16T17:10:11.714Z,2.70
2018-02-16T17:12:04.969Z,2.70
2018-02-16T17:13:04.908Z,3.10
2018-02-16T17:14:58.174Z,3.20
2018-02-16T17:15:58.082Z,3.00
2018-02-16T17:17:51.411Z,2.80
2018-02-16T17:18:51.338Z,3.10
2018-02-16T17:20:44.617Z,3.80
2018-02-16T17:21:44.527Z,3.20
2018-02-16T17:23:37.788Z,3.30
2018-02-16T17:24:37.713Z,3.20
2018-02-16T17:26:30.988Z,3.20
2018-02-16T17:27:30.900Z,3.10
2018-02-16T17:29:24.174Z,3.90
2018-02-16T17:30:24.083Z,3.80
2018-02-16T17:32:17.410Z,3.70
2018-02-16T17:33:17.338Z,3.70
2018-02-16T17:35:10.631Z,3.70
2018-02-16T17:36:10.542Z,3.30
2018-02-16T17:38:03.905Z,4.30
2018-02-16T17:39:03.731Z,3.80
2018-02-16T17:40:56.993Z,3.80
2018-02-16T17:41:56.898Z,3.90
2018-02-16T17:43:50.154Z,3.90
2018-02-16T17:44:50.083Z,3.40
2018-02-16T17:46:43.429Z,3.00
2018-02-16T17:47:43.338Z,3.20
2018-02-16T17:49:36.611Z,3.90
2018-02-16T17:50:36.522Z,3.40
2018-02-16T17:52:29.775Z,3.30
2018-02-16T17:53:29.703Z,3.30
2018-02-16T17:55:22.969Z,4.00
2018-02-16T17:56:22.909Z,4.20
2018-02-16T17:58:16.137Z,3.60
2018-02-16T17:59:16.062Z,3.80
2018-02-16T18:01:09.433Z,4.40
2018-02-16T18:02:09.337Z,4.00
2018-02-16T18:04:02.600Z,3.90
2018-02-16T18:05:02.548Z,3.90
2018-02-16T18:06:55.796Z,3.70
2018-02-16T18:07:55.709Z,4.10
2018-02-16T18:09:48.975Z,3.90
2018-02-16T18:10:48.882Z,4.20
2018-02-16T18:12:42.137Z,3.60
2018-02-16T18:13:42.066Z,4.30
2018-02-16T18:15:35.431Z,4.10
2018-02-16T18:16:35.344Z,4.20
2018-02-16T18:18:28.592Z,4.30
2018-02-16T18:19:28.520Z,4.50
2018-02-16T18:21:21.799Z,4.50
2018-02-16T18:22:21.707Z,4.40
2018-02-16T18:24:14.963Z,5.10
2018-02-16T18:25:14.890Z,4.90
2018-02-16T18:27:08.163Z,5.10
2018-02-16T18:28:08.070Z,4.70
2018-02-16T18:30:01.430Z,4.90
2018-02-16T18:31:01.340Z,4.30
2018-02-16T18:32:54.593Z,4.60
2018-02-16T18:33:54.522Z,4.90
2018-02-16T18:35:47.798Z,4.70
2018-02-16T18:36:47.703Z,4.90
2018-02-16T18:38:40.958Z,4.30
2018-02-16T18:39:40.887Z,4.70
2018-02-16T18:41:34.169Z,5.40
2018-02-16T18:42:34.070Z,5.80
2018-02-16T18:44:27.569Z,5.00
2018-02-16T18:45:27.496Z,5.00
2018-02-16T18:47:20.771Z,6.10
2018-02-16T18:48:20.682Z,6.70
2018-02-16T18:50:13.926Z,4.90